createdAt,value
2022-11-13T00:03:24.960Z,47.90
2022-11-13T00:05:51.393Z,48.30
2022-11-13T00:08:17.807Z,48.40
2022-11-13T00:10:44.222Z,48.10
2022-11-13T00:13:10.691Z,47.90
2022-11-13T00:15:37.170Z,48.20
2022-11-13T00:18:03.617Z,48.80
2022-11-13T00:20:30.031Z,47.90
2022-11-13T00:22:56.486Z,48.10
2022-11-13T00:27:49.863Z,47.40
2022-11-13T00:30:19.285Z,47.70
2022-11-13T00:32:46.148Z,48.30
2022-11-13T00:35:12.580Z,48.30
2022-11-13T00:37:39.037Z,47.30
2022-11-13T00:40:05.459Z,47.70
2022-11-13T00:42:31.873Z,48.00
2022-11-13T00:44:58.315Z,47.80
2022-11-13T00:47:24.747Z,48.10
2022-11-13T00:49:51.199Z,48.20
2022-11-13T00:52:17.627Z,48.20
2022-11-13T00:54:44.050Z,48.00
2022-11-13T00:59:37.438Z,48.70
2022-11-13T01:02:03.925Z,47.80
2022-11-13T01:06:57.433Z,47.60
2022-11-13T01:09:23.894Z,47.30
2022-11-13T01:11:50.310Z,48.90
2022-11-13T01:16:43.695Z,47.50
2022-11-13T01:19:10.163Z,47.30
2022-11-13T01:21:36.582Z,47.80
2022-11-13T01:24:03.013Z,47.10
2022-11-13T01:26:29.442Z,47.90
2022-11-13T01:28:55.874Z,47.60
2022-11-13T01:31:22.306Z,47.40
2022-11-13T01:33:48.723Z,47.70
2022-11-13T01:36:15.149Z,48.60
2022-11-13T01:38:41.571Z,46.80
2022-11-13T01:41:08.017Z,47.30
2022-11-13T01:43:34.436Z,48.00
2022-11-13T01:46:00.842Z,47.60
2022-11-13T01:48:27.589Z,48.00
2022-11-13T01:50:54.287Z,47.90
2022-11-13T01:55:47.662Z,48.20
2022-11-13T01:58:14.088Z,48.20
2022-11-13T02:00:40.509Z,48.10
2022-11-13T02:03:06.938Z,48.60
2022-11-13T02:05:33.384Z,48.30
2022-11-13T02:07:59.822Z,47.90
2022-11-13T02:10:26.242Z,48.30
2022-11-13T02:12:52.680Z,48.60
2022-11-13T02:15:19.098Z,48.30
2022-11-13T02:17:45.542Z,47.40
2022-11-13T02:20:13.423Z,47.60
2022-11-13T02:22:39.849Z,47.00
2022-11-13T02:25:06.278Z,47.60
2022-11-13T02:27:32.738Z,47.90
2022-11-13T02:29:59.164Z,47.50
2022-11-13T02:32:25.593Z,47.70
2022-11-13T02:37:18.977Z,47.60
2022-11-13T02:39:45.399Z,47.40
2022-11-13T02:42:11.817Z,47.70
2022-11-13T02:44:38.261Z,47.80
2022-11-13T02:47:04.683Z,47.60
2022-11-13T02:49:31.099Z,47.60
2022-11-13T02:51:57.518Z,48.00
2022-11-13T02:54:23.927Z,48.20
2022-11-13T02:56:50.349Z,47.40
2022-11-13T02:59:16.772Z,47.00
2022-11-13T03:01:43.216Z,48.10
2022-11-13T03:04:09.704Z,47.70
2022-11-13T03:06:36.128Z,47.00
2022-11-13T03:09:02.558Z,47.40
2022-11-13T03:11:28.998Z,47.40
2022-11-13T03:16:22.398Z,47.10
2022-11-13T03:18:48.814Z,46.80
2022-11-13T03:21:15.273Z,48.10
2022-11-13T03:23:41.695Z,47.50
2022-11-13T03:26:08.151Z,47.50
2022-11-13T03:28:34.594Z,47.70
2022-11-13T03:31:01.021Z,47.50
2022-11-13T03:33:27.468Z,48.00
2022-11-13T03:35:53.915Z,47.20
2022-11-13T03:38:20.364Z,47.20
2022-11-13T03:40:46.780Z,47.30
2022-11-13T03:43:13.204Z,47.30
2022-11-13T03:45:39.664Z,47.10
2022-11-13T03:48:06.084Z,46.80
2022-11-13T03:50:32.503Z,47.20
2022-11-13T03:52:58.947Z,47.00
2022-11-13T03:55:25.382Z,47.50
2022-11-13T03:57:51.809Z,46.90
2022-11-13T04:00:18.244Z,47.50
2022-11-13T04:02:44.663Z,46.90
2022-11-13T04:05:11.105Z,47.00
2022-11-13T04:07:37.525Z,47.30
2022-11-13T04:10:03.968Z,47.10
2022-11-13T04:12:30.397Z,47.00
2022-11-13T04:14:56.821Z,46.20
2022-11-13T04:17:23.327Z,47.20
2022-11-13T04:19:49.749Z,46.90
2022-11-13T04:24:43.150Z,46.70
2022-11-13T04:27:09.594Z,47.60
2022-11-13T04:29:36.021Z,47.30
2022-11-13T04:34:29.451Z,46.60
2022-11-13T04:36:55.881Z,46.80
2022-11-13T04:39:22.312Z,47.70
2022-11-13T04:41:54.028Z,47.20
2022-11-13T04:44:21.705Z,46.20
2022-11-13T04:46:48.110Z,46.70
2022-11-13T04:49:14.551Z,47.50
2022-11-13T04:51:40.980Z,47.40
2022-11-13T04:54:07.454Z,46.20
2022-11-13T04:59:00.823Z,47.10
2022-11-13T05:01:27.391Z,47.30
2022-11-13T05:03:53.945Z,47.30
2022-11-13T05:06:20.383Z,47.50
2022-11-13T05:08:46.812Z,47.30
2022-11-13T05:11:13.249Z,48.20
2022-11-13T05:13:39.743Z,46.90
2022-11-13T05:16:06.167Z,47.60
2022-11-13T05:20:59.570Z,47.40
2022-11-13T05:23:26.042Z,46.50
2022-11-13T05:25:52.479Z,46.60
2022-11-13T05:30:45.887Z,47.00
2022-11-13T05:38:07.513Z,46.50
2022-11-13T05:40:33.935Z,47.00
2022-11-13T05:43:00.372Z,46.50
2022-11-13T05:45:26.812Z,46.90
2022-11-13T05:47:53.248Z,46.60
2022-11-13T05:50:19.667Z,46.80
2022-11-13T05:55:13.031Z,46.80
2022-11-13T05:57:39.449Z,46.70
2022-11-13T06:00:05.871Z,46.00
2022-11-13T06:02:32.306Z,47.60
2022-11-13T06:04:58.718Z,46.70
2022-11-13T06:07:25.130Z,46.20
2022-11-13T06:09:53.405Z,46.90
2022-11-13T06:12:19.832Z,45.60
2022-11-13T06:14:46.255Z,46.60
2022-11-13T06:17:12.684Z,46.60
2022-11-13T06:19:39.111Z,45.90
2022-11-13T06:22:05.554Z,46.40
2022-11-13T06:24:32.050Z,45.90
2022-11-13T06:26:58.471Z,45.90
2022-11-13T06:29:24.894Z,46.50
2022-11-13T06:34:18.307Z,45.70
2022-11-13T06:36:44.755Z,46.70
2022-11-13T06:39:11.202Z,46.60
2022-11-13T06:41:37.699Z,45.30
2022-11-13T06:44:04.130Z,46.60
2022-11-13T06:46:30.566Z,45.90
2022-11-13T06:48:56.998Z,46.60
2022-11-13T06:51:23.428Z,46.00
2022-11-13T06:53:49.875Z,45.60
2022-11-13T06:58:43.264Z,45.70
2022-11-13T07:01:09.726Z,47.90
2022-11-13T07:03:36.191Z,45.90
2022-11-13T07:08:29.846Z,46.90
2022-11-13T07:10:56.555Z,46.90
2022-11-13T07:13:22.990Z,46.00
2022-11-13T07:15:49.414Z,47.20
2022-11-13T07:18:18.999Z,46.50
2022-11-13T07:20:47.927Z,47.00
2022-11-13T07:23:14.351Z,46.70
2022-11-13T07:25:40.775Z,47.30
2022-11-13T07:28:07.195Z,46.30
2022-11-13T07:33:00.603Z,46.20
2022-11-13T07:35:27.024Z,45.80
2022-11-13T07:37:53.442Z,46.30
2022-11-13T07:42:46.859Z,46.20
2022-11-13T07:45:13.287Z,46.50
2022-11-13T07:47:39.702Z,46.00
2022-11-13T07:50:10.720Z,45.40
2022-11-13T07:52:37.500Z,46.10
2022-11-13T07:55:03.931Z,46.10
2022-11-13T07:57:30.350Z,45.70
2022-11-13T07:59:56.782Z,45.90
2022-11-13T08:02:26.541Z,45.60
2022-11-13T08:04:53.323Z,46.00
2022-11-13T08:07:19.813Z,46.40
2022-11-13T08:09:46.316Z,47.00
2022-11-13T08:12:12.729Z,45.40
2022-11-13T08:14:39.147Z,46.00
2022-11-13T08:19:32.512Z,46.00
2022-11-13T08:21:58.956Z,45.60
2022-11-13T08:24:25.381Z,46.60
2022-11-13T08:26:51.802Z,46.10
2022-11-13T08:29:18.229Z,45.80
2022-11-13T08:31:44.643Z,45.40
2022-11-13T08:34:11.057Z,46.10
2022-11-13T08:36:37.483Z,46.10
2022-11-13T08:39:03.927Z,46.50
2022-11-13T08:41:30.343Z,45.60
2022-11-13T08:43:56.824Z,46.70
2022-11-13T08:46:23.243Z,45.80
2022-11-13T08:48:49.689Z,46.20
2022-11-13T08:51:16.144Z,45.50
2022-11-13T08:53:42.578Z,45.50
2022-11-13T08:56:09.010Z,46.30
2022-11-13T08:58:35.428Z,46.10
2022-11-13T09:01:01.863Z,45.30
2022-11-13T09:03:28.299Z,46.30
2022-11-13T09:05:54.745Z,45.40
2022-11-13T09:08:21.162Z,45.50
2022-11-13T09:13:14.611Z,45.00
2022-11-13T09:15:41.026Z,45.10
2022-11-13T09:18:07.466Z,45.70
2022-11-13T09:23:00.876Z,45.90
2022-11-13T09:25:29.395Z,47.60
2022-11-13T09:27:59.211Z,45.60
2022-11-13T09:30:25.640Z,45.60
2022-11-13T09:32:52.079Z,45.10
2022-11-13T09:35:18.519Z,45.40
2022-11-13T09:40:11.910Z,45.50
2022-11-13T09:42:38.331Z,45.90
2022-11-13T09:45:04.764Z,45.40
2022-11-13T09:49:58.181Z,45.50
2022-11-13T09:52:24.604Z,45.80
2022-11-13T09:54:51.047Z,45.90
2022-11-13T09:59:49.595Z,47.10
2022-11-13T10:02:16.031Z,44.90
2022-11-13T10:04:42.452Z,46.00
2022-11-13T10:07:08.977Z,45.50
2022-11-13T10:09:35.417Z,45.40
2022-11-13T10:14:28.815Z,46.00
2022-11-13T10:16:55.252Z,46.20
2022-11-13T10:19:21.665Z,45.80
2022-11-13T10:24:18.691Z,45.40
2022-11-13T10:26:45.142Z,46.00
2022-11-13T10:29:11.732Z,45.40
2022-11-13T10:34:05.183Z,45.50
2022-11-13T10:36:31.614Z,46.00
2022-11-13T10:38:58.022Z,45.90
2022-11-13T10:41:24.449Z,45.20
2022-11-13T10:43:50.874Z,45.60
2022-11-13T10:46:17.298Z,45.80
2022-11-13T10:48:43.724Z,45.00
2022-11-13T10:51:10.179Z,46.90
2022-11-13T10:53:36.607Z,47.80
2022-11-13T10:56:03.038Z,45.90
2022-11-13T10:58:29.801Z,47.70
2022-11-13T11:00:56.463Z,45.70
2022-11-13T11:03:23.173Z,45.60
2022-11-13T11:05:49.631Z,46.00
2022-11-13T11:08:16.055Z,47.60
2022-11-13T11:10:42.488Z,46.70
2022-11-13T11:13:08.910Z,46.60
2022-11-13T11:15:35.344Z,45.90
2022-11-13T11:20:28.757Z,46.30
2022-11-13T11:22:55.183Z,47.00
2022-11-13T11:25:21.632Z,46.90
2022-11-13T11:27:48.092Z,46.70
2022-11-13T11:30:14.538Z,46.50
2022-11-13T11:32:40.991Z,46.30
2022-11-13T11:35:07.442Z,48.10
2022-11-13T11:37:33.872Z,46.20
2022-11-13T11:40:00.298Z,46.80
2022-11-13T11:44:53.702Z,46.20
2022-11-13T11:47:20.157Z,46.70
2022-11-13T11:49:46.611Z,47.50
2022-11-13T11:52:13.047Z,47.10
2022-11-13T11:54:39.478Z,46.80
2022-11-13T11:57:05.923Z,46.70
2022-11-13T11:59:32.353Z,47.30
2022-11-13T12:01:58.780Z,49.00
2022-11-13T12:04:25.186Z,47.30
2022-11-13T12:06:51.640Z,47.20
2022-11-13T12:11:45.127Z,47.30
2022-11-13T12:14:11.560Z,46.00
2022-11-13T12:19:04.952Z,46.50
2022-11-13T12:21:31.367Z,47.00
2022-11-13T12:23:57.789Z,46.80
2022-11-13T12:26:24.254Z,46.20
2022-11-13T12:28:50.700Z,46.20
2022-11-13T12:31:17.165Z,46.40
2022-11-13T12:33:43.600Z,46.80
2022-11-13T12:36:10.030Z,46.60
2022-11-13T12:38:36.449Z,46.80
2022-11-13T12:41:02.868Z,45.90
2022-11-13T12:45:56.270Z,46.40
2022-11-13T12:48:22.712Z,48.10
2022-11-13T12:50:49.137Z,46.50
2022-11-13T12:53:15.580Z,47.00
2022-11-13T12:55:42.010Z,46.50
2022-11-13T12:58:08.446Z,47.00
2022-11-13T13:00:34.882Z,47.30
2022-11-13T13:03:01.306Z,47.70
2022-11-13T13:05:27.733Z,48.60
2022-11-13T13:07:54.223Z,47.30
2022-11-13T13:10:20.669Z,47.80
2022-11-13T13:12:47.118Z,47.70
2022-11-13T13:15:13.531Z,46.50
2022-11-13T13:17:39.988Z,47.00
2022-11-13T13:20:06.433Z,47.70
2022-11-13T13:22:32.881Z,46.90
2022-11-13T13:24:59.316Z,47.00
2022-11-13T13:27:25.751Z,47.00
2022-11-13T13:29:52.175Z,47.10
2022-11-13T13:32:21.079Z,47.00
2022-11-13T13:34:47.868Z,47.10
2022-11-13T13:37:14.335Z,47.40
2022-11-13T13:39:40.808Z,47.00
2022-11-13T13:42:07.239Z,47.00
2022-11-13T13:44:33.659Z,47.60
2022-11-13T13:47:00.098Z,46.80
2022-11-13T13:49:26.529Z,47.90
2022-11-13T13:51:52.956Z,48.00
2022-11-13T13:54:19.366Z,47.80
2022-11-13T13:56:45.829Z,47.40
2022-11-13T14:01:39.265Z,49.20
2022-11-13T14:04:05.721Z,47.60
2022-11-13T14:06:32.157Z,47.00
2022-11-13T14:08:58.587Z,47.40
2022-11-13T14:11:25.027Z,47.20
2022-11-13T14:13:51.448Z,47.10
2022-11-13T14:16:17.864Z,49.10
2022-11-13T14:18:44.321Z,47.60
2022-11-13T14:21:10.745Z,48.00
2022-11-13T14:23:37.164Z,47.60
2022-11-13T14:26:03.587Z,47.20
2022-11-13T14:28:30.327Z,48.50
2022-11-13T14:30:56.979Z,47.70
2022-11-13T14:33:23.414Z,47.30
2022-11-13T14:35:49.839Z,48.10
2022-11-13T14:38:16.256Z,47.60
2022-11-13T14:40:42.687Z,47.40
2022-11-13T14:43:09.107Z,47.80
2022-11-13T14:45:35.535Z,48.40
2022-11-13T14:48:01.963Z,47.90
2022-11-13T14:50:28.411Z,48.00
2022-11-13T14:52:54.860Z,47.90
2022-11-13T14:57:48.300Z,47.60
2022-11-13T15:00:14.730Z,48.40
2022-11-13T15:02:41.149Z,49.10
2022-11-13T15:05:07.608Z,48.50
2022-11-13T15:07:34.061Z,48.50
2022-11-13T15:10:00.508Z,48.20
2022-11-13T15:12:26.924Z,48.60
2022-11-13T15:14:53.371Z,48.40
2022-11-13T15:17:19.784Z,48.50
2022-11-13T15:19:46.239Z,48.90
2022-11-13T15:22:26.652Z,49.00
2022-11-13T15:24:53.897Z,49.40
2022-11-13T15:27:20.357Z,49.00
2022-11-13T15:29:46.817Z,47.90
2022-11-13T15:32:13.252Z,48.80
2022-11-13T15:34:39.670Z,48.20
2022-11-13T15:39:33.088Z,49.00
2022-11-13T15:41:59.520Z,48.20
2022-11-13T15:44:25.941Z,48.90
2022-11-13T15:46:52.383Z,48.70
2022-11-13T15:49:18.805Z,48.20
2022-11-13T15:51:45.237Z,48.00
2022-11-13T15:54:11.694Z,48.00
2022-11-13T15:56:38.129Z,48.40
2022-11-13T15:59:04.574Z,48.10
2022-11-13T16:03:58.023Z,48.60
2022-11-13T16:06:24.455Z,49.70
2022-11-13T16:08:50.894Z,47.90
2022-11-13T16:11:17.318Z,48.80
2022-11-13T16:13:43.782Z,47.40
2022-11-13T16:16:10.207Z,49.30
2022-11-13T16:18:36.655Z,48.60
2022-11-13T16:21:03.091Z,48.60
2022-11-13T16:23:29.761Z,48.60
2022-11-13T16:25:56.442Z,49.30
2022-11-13T16:28:22.870Z,48.50
2022-11-13T16:30:49.297Z,48.90
2022-11-13T16:33:15.719Z,48.60
2022-11-13T16:38:09.146Z,49.10
2022-11-13T16:50:24.051Z,48.10
2022-11-13T16:55:17.722Z,49.50
2022-11-13T16:57:44.155Z,47.50
2022-11-13T17:00:10.596Z,48.70
2022-11-13T17:05:04.014Z,48.30
2022-11-13T17:07:30.483Z,47.60
2022-11-13T17:10:24.165Z,47.80
2022-11-13T17:12:43.386Z,48.40
2022-11-13T17:15:09.832Z,47.80
2022-11-13T17:17:36.256Z,47.60
2022-11-13T17:20:02.686Z,47.70
2022-11-13T17:22:29.136Z,47.80
2022-11-13T17:24:55.581Z,47.30
2022-11-13T17:27:22.022Z,47.50
2022-11-13T17:34:42.435Z,48.60
2022-11-13T17:37:08.871Z,49.10
2022-11-13T17:39:35.344Z,47.70
2022-11-13T17:42:01.791Z,48.50
2022-11-13T17:44:28.259Z,48.30
2022-11-13T17:46:54.699Z,48.10
2022-11-13T17:51:49.520Z,47.30
2022-11-13T17:54:15.955Z,48.50
2022-11-13T17:56:42.397Z,47.20
2022-11-13T17:59:08.827Z,48.10
2022-11-13T18:01:35.359Z,47.70
2022-11-13T18:04:01.848Z,48.80
2022-11-13T18:06:28.277Z,48.30
2022-11-13T18:08:54.702Z,47.60
2022-11-13T18:11:21.128Z,47.50
2022-11-13T18:13:47.563Z,48.20
2022-11-13T18:16:14.058Z,47.40
2022-11-13T18:18:40.501Z,48.20
2022-11-13T18:21:21.721Z,48.50
2022-11-13T18:23:49.058Z,47.70
2022-11-13T18:26:15.500Z,47.50
2022-11-13T18:28:41.919Z,47.70
2022-11-13T18:31:08.359Z,47.50
2022-11-13T18:33:34.778Z,47.00
2022-11-13T18:36:01.215Z,46.90
2022-11-13T18:38:27.695Z,47.30
2022-11-13T18:40:54.136Z,48.10
2022-11-13T18:43:20.562Z,47.80
2022-11-13T18:45:46.995Z,48.20
2022-11-13T18:50:40.430Z,47.80
2022-11-13T18:53:06.851Z,48.10
2022-11-13T18:55:33.284Z,48.10
2022-11-13T19:00:26.670Z,47.70
2022-11-13T19:02:53.090Z,48.00
2022-11-13T19:05:19.537Z,47.90
2022-11-13T19:07:45.984Z,47.70
2022-11-13T19:10:12.419Z,47.90
2022-11-13T19:12:38.843Z,47.50
2022-11-13T19:15:05.270Z,47.90
2022-11-13T19:17:31.702Z,47.60
2022-11-13T19:19:58.153Z,48.10
2022-11-13T19:24:51.534Z,47.50
2022-11-13T19:27:17.997Z,47.20
2022-11-13T19:29:44.411Z,48.60
2022-11-13T19:32:10.837Z,47.90
2022-11-13T19:34:39.350Z,47.50
2022-11-13T19:37:07.676Z,47.60
2022-11-13T19:39:34.131Z,47.30
2022-11-13T19:42:00.572Z,47.90
2022-11-13T19:44:27.025Z,47.60
2022-11-13T19:49:20.421Z,47.80
2022-11-13T19:54:13.822Z,47.10
2022-11-13T19:56:40.263Z,47.40
2022-11-13T19:59:06.712Z,48.50
2022-11-13T20:01:33.228Z,47.60
2022-11-13T20:03:59.712Z,48.00
2022-11-13T20:06:26.161Z,47.90
2022-11-13T20:08:52.611Z,47.90
2022-11-13T20:11:19.041Z,47.50
2022-11-13T20:13:45.499Z,47.20
2022-11-13T20:16:11.965Z,48.10
2022-11-13T20:18:38.415Z,48.60
2022-11-13T20:21:04.842Z,47.80
2022-11-13T20:23:31.285Z,47.70
2022-11-13T20:25:57.734Z,47.90
2022-11-13T20:28:24.190Z,48.20
2022-11-13T20:30:50.709Z,48.10
2022-11-13T20:35:49.033Z,47.70
2022-11-13T20:43:09.479Z,47.20
2022-11-13T20:48:02.910Z,47.80
2022-11-13T20:50:29.369Z,48.10
2022-11-13T20:52:55.815Z,47.60
2022-11-13T20:55:22.262Z,47.90
2022-11-13T20:57:48.679Z,48.60
2022-11-13T21:00:15.106Z,47.50
2022-11-13T21:02:41.549Z,47.30
2022-11-13T21:05:07.976Z,48.00
2022-11-13T21:10:01.405Z,47.80
2022-11-13T21:12:27.863Z,48.00
2022-11-13T21:14:54.320Z,48.60
2022-11-13T21:17:20.768Z,48.00
2022-11-13T21:19:47.204Z,48.70
2022-11-13T21:24:40.614Z,48.50
2022-11-13T21:27:07.058Z,48.60
2022-11-13T21:29:33.516Z,48.90
2022-11-13T21:31:59.954Z,48.00
2022-11-13T21:34:26.543Z,48.20
2022-11-13T21:36:52.988Z,49.30
2022-11-13T21:39:19.416Z,48.50
2022-11-13T21:41:45.876Z,48.30
2022-11-13T21:44:12.322Z,48.90
2022-11-13T21:46:38.764Z,49.30
2022-11-13T21:49:05.187Z,49.00
2022-11-13T21:51:31.607Z,48.40
2022-11-13T21:53:58.041Z,49.40
2022-11-13T21:56:24.505Z,49.50
2022-11-13T22:01:17.939Z,49.40
2022-11-13T22:03:44.388Z,49.30
2022-11-13T22:08:37.794Z,48.80
2022-11-13T22:11:04.213Z,48.70
2022-11-13T22:13:30.638Z,49.60
2022-11-13T22:18:24.074Z,49.30
2022-11-13T22:20:50.518Z,49.10
2022-11-13T22:23:16.952Z,49.40
2022-11-13T22:25:43.433Z,48.90
2022-11-13T22:28:09.871Z,48.80
2022-11-13T22:30:36.295Z,48.90
2022-11-13T22:33:02.765Z,49.00
2022-11-13T22:35:29.321Z,49.00
2022-11-13T22:37:55.760Z,49.30
2022-11-13T22:40:22.212Z,49.20
2022-11-13T22:42:48.647Z,48.90
2022-11-13T22:45:23.886Z,48.60
2022-11-13T22:50:17.755Z,48.40
2022-11-13T22:52:44.218Z,48.80
2022-11-13T22:57:37.826Z,48.90
2022-11-13T23:00:04.263Z,48.90
2022-11-13T23:02:30.698Z,48.30
2022-11-13T23:07:24.231Z,47.80
2022-11-13T23:09:50.736Z,48.60
2022-11-13T23:12:17.173Z,48.30
2022-11-13T23:14:43.591Z,48.70
2022-11-13T23:17:10.009Z,48.10
2022-11-13T23:19:36.422Z,47.80
2022-11-13T23:22:02.855Z,48.80
2022-11-13T23:24:29.280Z,48.40
2022-11-13T23:26:55.704Z,48.20
2022-11-13T23:29:22.195Z,47.50
2022-11-13T23:31:48.620Z,48.30
2022-11-13T23:34:26.887Z,47.70
2022-11-13T23:37:01.446Z,48.40
2022-11-13T23:39:27.855Z,48.30
2022-11-13T23:41:54.291Z,47.70
2022-11-13T23:44:20.712Z,48.10
2022-11-13T23:46:47.140Z,47.70
2022-11-13T23:49:13.564Z,48.30
2022-11-13T23:51:39.989Z,48.10
2022-11-13T23:54:06.424Z,47.50
2022-11-13T23:56:32.851Z,47.20
2022-11-13T23:59:00.221Z,47.00
